Time;durP1;ratioP1;P1;durP2;ratioP2;P2;SDS_P1;SDS_P2;PMS_P1;PMS_P2;Temp;Humidity;BMP_temperature;BMP_pressure;BME280_temperature;BME280_humidity;BME280_pressure;Samples;Min_cycle;Max_cycle;Signal;HPM_P1;HPM_P2
2022/10/01 00:01:01;;;;;;;6.75;2.47;;;13.10;99.90;;;;;;5072856;28;20089;-59
2022/10/01 00:03:28;;;;;;;5.30;1.95;;;13.20;99.90;;;;;;5071926;28;20056;-59
2022/10/01 00:05:59;;;;;;;5.82;1.77;;;13.20;99.90;;;;;;5072578;28;20078;-59
2022/10/01 00:08:26;;;;;;;8.32;2.40;;;13.20;99.90;;;;;;5072243;28;20027;-59
2022/10/01 00:10:52;;;;;;;6.38;2.00;;;13.30;99.90;;;;;;5072513;28;20127;-59
2022/10/01 00:13:19;;;;;;;8.15;2.28;;;13.20;99.90;;;;;;5071856;28;20529;-59
2022/10/01 00:15:45;;;;;;;9.00;2.53;;;13.30;99.90;;;;;;5071855;28;20043;-59
2022/10/01 00:18:10;;;;;;;7.68;2.40;;;13.30;99.90;;;;;;5072153;28;20398;-59
2022/10/01 00:20:43;;;;;;;7.70;2.33;;;13.30;99.90;;;;;;5072247;28;20029;-60
2022/10/01 00:23:10;;;;;;;8.20;2.60;;;13.30;99.90;;;;;;5072206;28;20050;-59
2022/10/01 00:25:35;;;;;;;9.40;2.65;;;13.30;99.90;;;;;;5072021;28;20016;-59
2022/10/01 00:28:01;;;;;;;6.50;2.00;;;13.40;99.90;;;;;;5071997;28;20039;-59
2022/10/01 00:30:27;;;;;;;9.25;2.47;;;13.40;99.90;;;;;;5072248;28;20036;-59
2022/10/01 00:32:53;;;;;;;7.85;2.60;;;13.40;99.90;;;;;;5071380;28;20029;-59
2022/10/01 00:35:21;;;;;;;7.28;2.75;;;13.40;99.90;;;;;;5072209;28;20024;-59
2022/10/01 00:37:49;;;;;;;7.20;2.53;;;13.40;99.90;;;;;;5071954;28;20031;-59
2022/10/01 00:40:16;;;;;;;6.50;2.35;;;13.40;99.90;;;;;;5071862;28;20033;-59
2022/10/01 00:42:42;;;;;;;6.30;2.55;;;13.30;99.90;;;;;;5071837;28;20376;-59
2022/10/01 00:45:11;;;;;;;5.90;2.33;;;13.30;99.90;;;;;;5071662;28;20067;-59
2022/10/01 00:47:53;;;;;;;5.95;2.25;;;13.30;99.90;;;;;;5071891;28;20051;-59
2022/10/01 00:50:33;;;;;;;8.20;2.83;;;13.30;99.90;;;;;;5071558;28;20045;-59
2022/10/01 00:53:11;;;;;;;6.70;2.35;;;13.30;99.90;;;;;;5071800;28;20020;-59
2022/10/01 00:55:42;;;;;;;10.15;2.90;;;13.30;99.90;;;;;;5071798;28;20031;-59
2022/10/01 00:58:10;;;;;;;9.73;2.90;;;13.30;99.90;;;;;;5071748;28;20020;-59
2022/10/01 01:00:38;;;;;;;11.30;2.78;;;13.30;99.90;;;;;;5071695;28;20082;-59
2022/10/01 01:03:05;;;;;;;10.35;2.78;;;13.40;99.90;;;;;;5071809;28;20498;-59
2022/10/01 01:05:31;;;;;;;9.32;3.22;;;13.30;99.90;;;;;;5071535;28;20074;-59
2022/10/01 01:08:00;;;;;;;8.25;2.55;;;13.40;99.90;;;;;;5071710;28;20429;-59
2022/10/01 01:10:54;;;;;;;6.68;2.42;;;13.40;99.90;;;;;;5071917;28;20397;-59
2022/10/01 01:13:32;;;;;;;8.68;2.65;;;13.50;99.90;;;;;;5071554;28;20021;-59
2022/10/01 01:16:20;;;;;;;5.88;2.70;;;13.40;99.90;;;;;;5071391;28;20040;-60
2022/10/01 01:19:09;;;;;;;7.18;2.35;;;13.40;99.90;;;;;;5071524;28;20024;-59
2022/10/01 01:21:41;;;;;;;9.60;2.70;;;13.40;99.90;;;;;;5071775;28;20033;-59
2022/10/01 01:24:19;;;;;;;7.80;2.70;;;13.40;99.90;;;;;;5071582;28;20052;-59
2022/10/01 01:26:57;;;;;;;7.35;2.70;;;13.40;99.90;;;;;;5074380;28;20028;-59
2022/10/01 01:29:50;;;;;;;12.57;2.92;;;13.40;99.90;;;;;;5075174;28;20028;-59
2022/10/01 01:32:25;;;;;;;8.43;3.00;;;13.40;99.90;;;;;;5067441;28;20052;-59
2022/10/01 01:34:53;;;;;;;9.45;3.17;;;13.50;99.90;;;;;;5075328;28;20036;-59
2022/10/01 01:37:23;;;;;;;9.05;2.75;;;13.40;99.90;;;;;;5075075;28;20035;-59
2022/10/01 01:39:52;;;;;;;8.00;3.00;;;13.40;99.90;;;;;;5074010;28;20048;-59
2022/10/01 01:42:36;;;;;;;11.10;2.75;;;13.40;99.90;;;;;;5075520;28;20048;-59
2022/10/01 01:45:07;;;;;;;10.43;3.00;;;13.40;99.90;;;;;;5075080;28;20033;-59
2022/10/01 01:47:34;;;;;;;10.13;2.60;;;13.40;99.90;;;;;;5075094;28;20051;-59
2022/10/01 01:50:02;;;;;;;10.85;2.80;;;13.40;99.90;;;;;;5074869;28;20032;-59
2022/10/01 01:52:29;;;;;;;8.88;3.20;;;13.40;99.90;;;;;;5073687;28;20032;-59
2022/10/01 01:54:56;;;;;;;7.63;2.90;;;13.30;99.90;;;;;;5075295;28;20025;-59
2022/10/01 01:57:22;;;;;;;9.20;2.80;;;13.40;99.90;;;;;;5074616;28;20482;-60
2022/10/01 01:59:48;;;;;;;10.95;3.58;;;13.40;99.90;;;;;;5074616;28;20017;-60
2022/10/01 02:02:24;;;;;;;11.15;3.33;;;13.50;99.90;;;;;;5074789;28;20058;-59
2022/10/01 02:05:02;;;;;;;10.65;3.03;;;13.50;99.90;;;;;;5074781;28;20032;-59
2022/10/01 02:07:41;;;;;;;9.40;2.60;;;13.50;99.90;;;;;;5074747;28;20450;-59
2022/10/01 02:10:35;;;;;;;10.82;2.80;;;13.60;99.90;;;;;;5074953;28;20040;-59
2022/10/01 02:13:34;;;;;;;8.43;2.60;;;13.60;99.90;;;;;;5054296;28;20017;-59
2022/10/01 02:16:29;;;;;;;9.68;2.67;;;13.70;99.90;;;;;;4973197;28;20440;-59
2022/10/01 02:19:30;;;;;;;11.30;3.38;;;13.70;99.90;;;;;;4957485;28;20481;-59
2022/10/01 02:21:59;;;;;;;9.73;2.75;;;13.80;99.90;;;;;;4973607;28;20063;-59
2022/10/01 02:24:34;;;;;;;9.32;2.55;;;13.80;99.90;;;;;;4973609;28;20031;-59
2022/10/01 02:27:05;;;;;;;9.77;2.55;;;13.90;99.90;;;;;;4973721;28;20050;-59
2022/10/01 02:29:33;;;;;;;9.35;2.60;;;13.90;99.90;;;;;;4973036;28;20473;-59
2022/10/01 02:32:01;;;;;;;12.10;3.10;;;13.90;99.90;;;;;;4973420;28;20126;-59
2022/10/01 02:34:29;;;;;;;9.13;2.78;;;14.00;99.90;;;;;;4973358;28;20045;-59
2022/10/01 02:36:58;;;;;;;9.68;2.47;;;14.00;99.90;;;;;;4973304;28;20031;-59
2022/10/01 02:39:28;;;;;;;9.60;2.83;;;14.00;99.90;;;;;;4973156;28;20418;-60
2022/10/01 02:41:55;;;;;;;10.85;2.63;;;14.00;99.90;;;;;;4973507;28;20114;-59
2022/10/01 02:44:36;;;;;;;11.27;2.33;;;14.10;99.90;;;;;;4978734;28;20484;-59
2022/10/01 02:47:06;;;;;;;5.30;1.95;;;14.10;99.90;;;;;;5011993;28;20060;-60
2022/10/01 02:49:34;;;;;;;8.55;2.78;;;14.20;99.90;;;;;;5012527;28;20034;-60
2022/10/01 02:52:09;;;;;;;7.50;2.40;;;14.20;99.90;;;;;;5015655;28;20582;-59
2022/10/01 02:54:50;;;;;;;8.10;2.33;;;14.10;99.90;;;;;;5053858;28;20056;-60
2022/10/01 02:57:23;;;;;;;9.00;3.03;;;14.20;99.90;;;;;;5053452;28;20029;-59
2022/10/01 02:59:56;;;;;;;11.93;2.80;;;14.20;99.90;;;;;;5053886;28;20107;-60
2022/10/01 03:02:26;;;;;;;11.43;3.03;;;14.20;99.90;;;;;;5053645;28;20487;-59
2022/10/01 03:04:56;;;;;;;11.02;2.60;;;14.20;99.90;;;;;;5053731;28;20036;-59
2022/10/01 03:07:23;;;;;;;9.18;2.42;;;14.20;99.90;;;;;;5053893;28;20381;-60
2022/10/01 03:09:49;;;;;;;8.63;2.20;;;14.20;99.90;;;;;;5053471;28;20450;-59
2022/10/01 03:12:16;;;;;;;9.52;2.95;;;14.20;99.90;;;;;;5070371;28;20020;-60
2022/10/01 03:14:43;;;;;;;11.93;2.90;;;14.20;99.90;;;;;;5073783;28;20032;-60
2022/10/01 03:17:10;;;;;;;10.60;3.00;;;14.20;99.90;;;;;;5073325;28;20465;-59
2022/10/01 03:19:35;;;;;;;7.53;2.60;;;14.30;99.90;;;;;;5073362;28;20478;-59
2022/10/01 03:22:01;;;;;;;11.43;2.83;;;14.30;99.90;;;;;;5073260;28;20059;-60
2022/10/01 03:24:27;;;;;;;9.13;2.70;;;14.20;99.90;;;;;;5073216;28;20024;-61
2022/10/01 03:26:55;;;;;;;8.45;2.78;;;14.30;99.90;;;;;;5072988;28;20032;-60
2022/10/01 03:29:21;;;;;;;12.23;2.97;;;14.30;99.90;;;;;;5072983;28;20062;-60
2022/10/01 03:31:47;;;;;;;13.13;3.28;;;14.30;99.90;;;;;;5071725;28;20449;-60
2022/10/01 03:34:13;;;;;;;11.05;2.92;;;14.30;99.90;;;;;;5073021;28;20024;-59
2022/10/01 03:36:39;;;;;;;11.15;3.10;;;14.30;99.90;;;;;;5072936;28;20035;-60
2022/10/01 03:39:05;;;;;;;9.80;3.20;;;14.30;99.90;;;;;;5073118;28;20408;-59
2022/10/01 03:41:30;;;;;;;13.88;3.38;;;14.30;99.90;;;;;;5072539;28;20497;-59
2022/10/01 03:43:56;;;;;;;10.27;3.22;;;14.30;99.90;;;;;;5072767;28;20025;-59
2022/10/01 03:46:22;;;;;;;11.88;3.50;;;14.40;99.90;;;;;;5072549;28;20111;-60
2022/10/01 03:48:48;;;;;;;12.68;3.50;;;14.50;99.90;;;;;;5072129;28;20043;-60
2022/10/01 03:51:14;;;;;;;14.50;3.67;;;14.40;99.90;;;;;;5072585;28;20037;-60
2022/10/01 03:53:39;;;;;;;12.77;3.53;;;14.40;99.90;;;;;;5071284;28;20466;-59
2022/10/01 03:56:06;;;;;;;16.15;3.83;;;14.50;99.90;;;;;;5072419;28;20438;-60
2022/10/01 03:58:31;;;;;;;11.75;3.92;;;14.50;99.90;;;;;;5072626;28;20039;-59
2022/10/01 04:00:58;;;;;;;14.35;4.10;;;14.50;99.90;;;;;;5072389;28;20463;-60
2022/10/01 04:03:24;;;;;;;11.20;3.95;;;14.50;99.90;;;;;;5072273;28;20036;-59
2022/10/01 04:05:50;;;;;;;14.10;4.28;;;14.50;99.90;;;;;;5072347;28;20387;-59
2022/10/01 04:08:16;;;;;;;15.65;4.00;;;14.60;99.90;;;;;;5072287;28;20490;-59
2022/10/01 04:10:41;;;;;;;10.48;4.13;;;14.60;99.90;;;;;;5072062;28;20028;-60
2022/10/01 04:13:07;;;;;;;16.92;5.30;;;14.60;99.90;;;;;;5072472;28;20021;-59
2022/10/01 04:15:33;;;;;;;16.30;5.03;;;14.60;99.90;;;;;;5072121;28;20051;-59
2022/10/01 04:18:01;;;;;;;15.70;5.00;;;14.60;99.90;;;;;;5032271;28;20034;-60
2022/10/01 04:20:26;;;;;;;16.88;5.38;;;14.60;99.90;;;;;;5031068;28;20060;-60
2022/10/01 04:22:52;;;;;;;16.95;4.47;;;14.60;99.90;;;;;;5032447;28;20053;-59
2022/10/01 04:25:18;;;;;;;15.48;4.90;;;14.70;99.90;;;;;;5031835;28;20395;-59
2022/10/01 04:27:58;;;;;;;14.82;4.53;;;14.80;99.90;;;;;;5032197;28;20042;-59
2022/10/01 04:30:26;;;;;;;19.17;5.28;;;14.80;99.90;;;;;;5030898;28;20133;-59
2022/10/01 04:32:52;;;;;;;12.75;4.53;;;14.80;99.90;;;;;;5032023;28;20025;-59
2022/10/01 04:35:18;;;;;;;16.75;4.85;;;14.80;99.90;;;;;;5032028;28;20030;-59
2022/10/01 04:37:44;;;;;;;15.10;4.78;;;14.80;99.90;;;;;;5032043;28;20021;-59
2022/10/01 04:40:10;;;;;;;13.02;4.45;;;14.90;99.90;;;;;;5031457;28;20514;-59
2022/10/01 04:42:43;;;;;;;18.15;4.55;;;14.90;99.90;;;;;;5031906;28;20025;-59
2022/10/01 04:45:10;;;;;;;15.98;4.30;;;14.90;99.90;;;;;;5031926;28;20082;-59
2022/10/01 04:47:35;;;;;;;16.50;4.30;;;15.00;99.90;;;;;;5031864;28;20029;-59
2022/10/01 04:50:01;;;;;;;20.98;4.65;;;15.00;99.90;;;;;;5031741;28;20384;-59
2022/10/01 04:52:27;;;;;;;17.42;4.22;;;15.00;99.90;;;;;;5032014;28;20029;-59
2022/10/01 04:54:53;;;;;;;17.83;4.20;;;15.00;99.90;;;;;;5031490;28;20030;-59
2022/10/01 04:57:22;;;;;;;18.63;4.43;;;15.00;99.90;;;;;;5031679;28;20099;-59
2022/10/01 04:59:48;;;;;;;18.23;4.72;;;15.00;99.90;;;;;;5031769;28;20076;-59
2022/10/01 05:02:13;;;;;;;14.85;4.00;;;15.00;99.90;;;;;;5035690;28;20017;-59
2022/10/01 05:04:39;;;;;;;18.00;4.72;;;15.00;99.90;;;;;;5035671;28;20048;-60
2022/10/01 05:07:05;;;;;;;18.30;4.20;;;15.00;99.90;;;;;;5035723;28;20056;-59
2022/10/01 05:09:31;;;;;;;14.38;4.05;;;15.00;99.90;;;;;;5035800;28;20572;-60
2022/10/01 05:11:56;;;;;;;15.20;3.78;;;15.00;99.90;;;;;;5035669;28;20061;-59
2022/10/01 05:14:23;;;;;;;17.00;3.97;;;15.00;99.90;;;;;;5035808;28;20026;-59
2022/10/01 05:16:49;;;;;;;19.13;4.85;;;15.10;99.90;;;;;;5056139;28;20056;-59
2022/10/01 05:19:15;;;;;;;15.20;4.40;;;15.10;99.90;;;;;;5075816;28;20079;-60
2022/10/01 05:21:41;;;;;;;17.90;4.25;;;15.10;99.90;;;;;;5075378;28;20470;-60
2022/10/01 05:24:07;;;;;;;14.60;4.18;;;15.10;99.90;;;;;;5075554;28;20035;-59
2022/10/01 05:26:35;;;;;;;13.23;4.05;;;15.10;99.90;;;;;;5075212;28;20028;-59
2022/10/01 05:29:01;;;;;;;18.08;5.13;;;15.20;99.90;;;;;;5074115;28;20052;-60
2022/10/01 05:31:27;;;;;;;15.98;3.90;;;15.20;99.90;;;;;;5075228;28;20059;-59
2022/10/01 05:33:53;;;;;;;16.95;4.43;;;15.20;99.90;;;;;;5075193;28;20411;-59
2022/10/01 05:36:18;;;;;;;15.50;4.88;;;15.20;99.90;;;;;;5073776;28;20029;-59
2022/10/01 05:38:47;;;;;;;21.48;4.90;;;15.20;99.90;;;;;;5074685;28;20475;-59
2022/10/01 05:41:12;;;;;;;18.33;4.82;;;15.20;99.90;;;;;;5074901;28;20028;-59
2022/10/01 05:43:38;;;;;;;14.60;3.97;;;15.20;99.90;;;;;;5074977;28;20037;-59
2022/10/01 05:46:04;;;;;;;14.15;3.88;;;15.20;99.90;;;;;;5075077;28;20036;-59
2022/10/01 05:48:35;;;;;;;15.85;4.38;;;15.30;99.90;;;;;;5074914;28;20025;-60
2022/10/01 05:51:06;;;;;;;13.70;4.07;;;15.30;99.90;;;;;;5072966;28;20032;-60
2022/10/01 05:53:39;;;;;;;11.43;3.65;;;15.30;99.90;;;;;;5074507;28;20029;-59
2022/10/01 05:56:05;;;;;;;16.02;3.70;;;15.30;99.90;;;;;;5074862;28;20028;-59
2022/10/01 05:58:31;;;;;;;11.82;4.10;;;15.30;99.90;;;;;;5075240;28;20044;-60
2022/10/01 06:00:57;;;;;;;8.88;3.20;;;15.30;99.90;;;;;;5074822;28;20052;-59
2022/10/01 06:03:24;;;;;;;13.05;3.38;;;15.40;99.90;;;;;;5074452;28;20025;-59
2022/10/01 06:05:52;;;;;;;10.15;3.63;;;15.40;99.90;;;;;;5074376;28;20479;-60
2022/10/01 06:08:18;;;;;;;8.85;3.50;;;15.40;99.90;;;;;;5074575;28;20047;-59
2022/10/01 06:10:45;;;;;;;10.07;3.65;;;15.40;99.90;;;;;;5074281;28;20453;-59
2022/10/01 06:13:15;;;;;;;12.63;3.47;;;15.40;99.90;;;;;;5074643;28;20466;-59
2022/10/01 06:15:41;;;;;;;7.25;2.88;;;15.50;99.90;;;;;;5074185;28;20028;-59
2022/10/01 06:18:08;;;;;;;11.50;2.90;;;15.50;99.90;;;;;;5074342;28;20124;-59
2022/10/01 06:20:34;;;;;;;10.32;3.80;;;15.50;99.90;;;;;;5074533;28;20056;-59
2022/10/01 06:23:00;;;;;;;9.57;3.50;;;15.50;99.90;;;;;;5074286;28;20021;-59
2022/10/01 06:25:30;;;;;;;11.05;3.67;;;15.50;99.90;;;;;;5073977;28;20028;-58
2022/10/01 06:27:57;;;;;;;10.57;3.83;;;15.50;99.90;;;;;;5073626;28;20040;-59
2022/10/01 06:30:28;;;;;;;10.50;3.70;;;15.50;99.90;;;;;;5072718;28;20075;-59
2022/10/01 06:33:08;;;;;;;10.02;3.83;;;15.50;99.90;;;;;;5073729;28;20024;-59
2022/10/01 06:35:39;;;;;;;12.18;4.10;;;15.60;99.90;;;;;;5073282;28;20074;-59
2022/10/01 06:38:05;;;;;;;8.95;3.63;;;15.60;99.90;;;;;;5074071;28;20044;-59
2022/10/01 06:40:31;;;;;;;11.23;4.57;;;15.60;99.90;;;;;;5074085;28;20048;-59
2022/10/01 06:42:57;;;;;;;12.02;4.90;;;15.70;99.90;;;;;;5074413;28;20056;-59
2022/10/01 06:45:28;;;;;;;9.25;3.85;;;15.60;99.90;;;;;;5073682;28;20406;-59
2022/10/01 06:48:01;;;;;;;9.98;3.88;;;15.60;99.90;;;;;;5073982;28;20051;-59
2022/10/01 06:50:28;;;;;;;11.20;3.80;;;15.70;99.90;;;;;;5073487;28;20580;-59
2022/10/01 06:52:54;;;;;;;6.28;3.40;;;15.70;99.90;;;;;;5073689;28;20024;-59
2022/10/01 06:55:27;;;;;;;10.13;4.10;;;15.70;99.90;;;;;;5073650;28;20024;-60
2022/10/01 06:57:58;;;;;;;11.98;4.20;;;15.70;99.90;;;;;;5073776;28;20115;-59
2022/10/01 07:00:26;;;;;;;10.75;4.75;;;15.70;99.90;;;;;;5073893;28;20059;-59
2022/10/01 07:02:53;;;;;;;9.05;4.00;;;15.70;99.90;;;;;;5072903;28;20501;-59
2022/10/01 07:05:18;;;;;;;10.10;4.32;;;15.80;99.90;;;;;;5072909;28;20028;-59
2022/10/01 07:07:44;;;;;;;9.98;4.53;;;15.80;99.90;;;;;;5073635;28;20032;-59
2022/10/01 07:10:11;;;;;;;13.27;4.95;;;15.80;99.90;;;;;;5073341;28;20585;-59
2022/10/01 07:12:37;;;;;;;10.27;4.43;;;15.80;99.90;;;;;;5053469;28;20505;-59
2022/10/01 07:15:07;;;;;;;11.30;4.70;;;15.90;99.90;;;;;;5053537;28;20025;-59
2022/10/01 07:17:40;;;;;;;12.00;4.32;;;16.00;99.90;;;;;;5052497;28;20155;-60
2022/10/01 07:20:07;;;;;;;13.20;4.60;;;16.00;99.90;;;;;;5053581;28;20427;-59
2022/10/01 07:22:32;;;;;;;10.00;4.80;;;16.00;99.90;;;;;;5052665;28;20060;-59
2022/10/01 07:24:58;;;;;;;14.80;4.85;;;16.00;99.90;;;;;;5052758;28;20115;-59
2022/10/01 07:27:24;;;;;;;15.85;4.47;;;16.00;99.90;;;;;;5053885;28;20610;-59
2022/10/01 07:29:50;;;;;;;13.43;4.85;;;16.10;99.90;;;;;;5072185;28;20036;-59
2022/10/01 07:32:16;;;;;;;18.27;5.40;;;16.10;99.90;;;;;;5072333;28;20031;-59
2022/10/01 07:34:41;;;;;;;19.33;5.15;;;16.20;99.90;;;;;;5072189;28;20017;-59
2022/10/01 07:37:08;;;;;;;15.27;5.20;;;16.20;99.90;;;;;;5072329;28;20023;-60
2022/10/01 07:39:35;;;;;;;16.65;4.80;;;16.20;99.90;;;;;;5072309;28;20028;-58
2022/10/01 07:42:01;;;;;;;14.68;4.80;;;16.30;99.90;;;;;;5072677;28;20040;-58
2022/10/01 07:44:28;;;;;;;13.70;4.53;;;16.40;99.90;;;;;;5072631;28;20513;-59
2022/10/01 07:46:54;;;;;;;19.08;5.38;;;16.50;99.90;;;;;;5072241;28;20040;-59
2022/10/01 07:49:20;;;;;;;15.27;4.88;;;16.50;99.90;;;;;;5072922;28;20502;-59
2022/10/01 07:51:47;;;;;;;14.98;4.97;;;16.50;99.90;;;;;;5061887;28;20103;-60
2022/10/01 07:54:13;;;;;;;17.70;5.05;;;16.60;99.90;;;;;;5061900;28;20036;-59
2022/10/01 07:56:39;;;;;;;15.43;4.82;;;16.70;99.90;;;;;;5052535;28;20029;-59
2022/10/01 07:59:07;;;;;;;19.33;5.43;;;16.90;99.90;;;;;;5052309;28;20052;-59
2022/10/01 08:01:32;;;;;;;15.18;4.47;;;17.00;99.90;;;;;;5052091;28;20426;-59
2022/10/01 08:03:58;;;;;;;15.10;4.85;;;17.00;99.90;;;;;;5052200;28;20092;-59
2022/10/01 08:06:24;;;;;;;15.63;4.80;;;17.20;99.90;;;;;;5052394;28;20067;-59
2022/10/01 08:08:50;;;;;;;14.98;4.50;;;17.30;99.90;;;;;;5052256;28;20025;-60
2022/10/01 08:11:17;;;;;;;16.85;5.22;;;17.40;99.90;;;;;;5061622;28;20060;-60
2022/10/01 08:13:46;;;;;;;13.82;4.05;;;17.30;99.90;;;;;;5072898;28;20074;-59
2022/10/01 08:16:12;;;;;;;13.15;3.55;;;17.40;99.90;;;;;;5071742;28;20047;-59
2022/10/01 08:18:41;;;;;;;15.57;3.83;;;17.40;99.90;;;;;;5072076;28;20111;-60
2022/10/01 08:21:08;;;;;;;12.50;3.90;;;17.60;99.90;;;;;;5070642;28;20498;-60
2022/10/01 08:23:35;;;;;;;11.15;3.38;;;17.50;99.90;;;;;;5061834;28;20063;-60
2022/10/01 08:26:04;;;;;;;13.18;3.95;;;17.70;99.90;;;;;;5067098;28;20095;-59
2022/10/01 08:28:30;;;;;;;21.63;4.60;;;17.90;99.90;;;;;;5055864;28;20025;-59
2022/10/01 08:30:56;;;;;;;15.27;3.90;;;18.00;99.90;;;;;;5051808;28;20029;-59
2022/10/01 08:33:22;;;;;;;15.77;3.85;;;18.00;99.90;;;;;;5062596;28;20024;-60
2022/10/01 08:35:48;;;;;;;13.02;3.67;;;17.90;99.90;;;;;;5055877;28;20025;-60
2022/10/01 08:38:15;;;;;;;14.15;3.58;;;17.80;99.90;;;;;;5051802;28;20021;-60
2022/10/01 08:40:50;;;;;;;17.00;3.97;;;17.80;99.90;;;;;;5051738;28;20040;-60
2022/10/01 08:43:31;;;;;;;12.18;3.13;;;17.90;99.90;;;;;;5057631;28;20024;-59
2022/10/01 08:46:15;;;;;;;12.90;3.55;;;17.90;99.90;;;;;;5069820;28;20554;-59
2022/10/01 08:48:52;;;;;;;16.75;3.63;;;17.90;99.90;;;;;;5068370;28;20116;-59
2022/10/01 08:51:59;;;;;;;13.70;3.72;;;18.00;99.90;;;;;;5052038;28;20044;-60
2022/10/01 08:54:58;;;;;;;23.77;4.15;;;17.90;99.90;;;;;;5061882;28;20044;-60
2022/10/01 08:57:29;;;;;;;13.63;3.33;;;18.00;99.90;;;;;;5054824;28;20028;-60
2022/10/01 08:59:58;;;;;;;12.90;3.15;;;18.10;99.90;;;;;;5057546;28;20450;-60
2022/10/01 09:02:34;;;;;;;14.80;3.42;;;18.10;99.90;;;;;;5071439;28;20032;-59
2022/10/01 09:05:03;;;;;;;17.05;3.28;;;18.10;99.90;;;;;;5071471;28;20394;-59
2022/10/01 09:07:47;;;;;;;12.02;3.30;;;17.90;99.90;;;;;;5071765;28;20029;-60
2022/10/01 09:10:23;;;;;;;12.15;3.25;;;17.90;99.90;;;;;;5071375;28;20032;-60
2022/10/01 09:13:10;;;;;;;18.35;4.10;;;18.00;99.90;;;;;;5071606;28;20028;-60
2022/10/01 09:15:44;;;;;;;13.20;3.42;;;18.30;99.90;;;;;;5071212;28;20115;-60
2022/10/01 09:18:32;;;;;;;14.63;3.42;;;18.50;99.90;;;;;;5071628;28;20032;-60
2022/10/01 09:20:58;;;;;;;15.80;3.78;;;18.30;99.90;;;;;;5051648;28;20037;-60
2022/10/01 09:23:29;;;;;;;13.60;3.50;;;18.30;99.90;;;;;;5061528;28;20028;-61
2022/10/01 09:25:58;;;;;;;12.65;3.25;;;18.30;99.90;;;;;;5051855;28;20060;-61
2022/10/01 09:28:28;;;;;;;16.13;3.55;;;18.20;99.90;;;;;;5051158;28;20086;-60
2022/10/01 09:31:14;;;;;;;13.73;3.20;;;18.20;99.90;;;;;;5063349;28;20042;-61
2022/10/01 09:33:43;;;;;;;13.70;3.35;;;18.20;99.90;;;;;;5063882;28;20498;-61
2022/10/01 09:36:25;;;;;;;17.40;3.60;;;18.10;99.90;;;;;;5050978;28;20017;-60
2022/10/01 09:39:08;;;;;;;16.80;3.75;;;18.10;99.90;;;;;;5050686;28;20428;-61
2022/10/01 09:41:33;;;;;;;15.68;3.60;;;18.20;99.90;;;;;;5050720;28;20111;-60
2022/10/01 09:44:00;;;;;;;14.13;3.30;;;18.40;99.90;;;;;;5050777;28;20060;-60
2022/10/01 09:46:26;;;;;;;13.93;3.50;;;18.20;99.90;;;;;;5071880;28;20045;-60
2022/10/01 09:48:51;;;;;;;13.77;3.45;;;18.10;99.90;;;;;;5074888;28;20510;-60
2022/10/01 09:51:35;;;;;;;15.05;3.17;;;18.20;99.90;;;;;;5073669;28;20036;-60
2022/10/01 09:54:14;;;;;;;20.02;4.35;;;18.20;99.90;;;;;;5071569;28;20089;-60
2022/10/01 09:56:46;;;;;;;14.27;3.42;;;18.30;99.90;;;;;;5071282;28;20039;-60
2022/10/01 09:59:23;;;;;;;13.40;2.93;;;18.40;99.90;;;;;;5073796;28;20017;-60
2022/10/01 10:02:00;;;;;;;16.92;3.85;;;18.40;99.90;;;;;;5073653;28;20267;-60
2022/10/01 10:04:26;;;;;;;14.10;3.70;;;18.60;99.90;;;;;;5074759;28;20016;-61
2022/10/01 10:07:01;;;;;;;14.05;3.25;;;18.60;99.90;;;;;;5074601;28;20379;-60
2022/10/01 10:09:31;;;;;;;13.98;3.60;;;18.40;99.90;;;;;;5074943;28;20115;-60
2022/10/01 10:11:58;;;;;;;12.07;3.35;;;18.70;99.90;;;;;;5073679;28;20048;-60
2022/10/01 10:14:35;;;;;;;15.25;3.60;;;18.80;99.90;;;;;;5074219;28;20120;-60
2022/10/01 10:17:14;;;;;;;14.43;3.42;;;18.70;99.90;;;;;;5074357;28;20075;-60
2022/10/01 10:19:51;;;;;;;13.77;3.13;;;18.70;99.90;;;;;;5073460;28;20408;-60
2022/10/01 10:22:27;;;;;;;13.52;3.70;;;18.60;99.90;;;;;;5069674;28;20024;-59
2022/10/01 10:24:57;;;;;;;12.75;2.88;;;18.60;99.90;;;;;;5063316;28;21155;-61
2022/10/01 10:27:28;;;;;;;14.25;3.45;;;18.50;99.90;;;;;;5053636;28;20025;-60
2022/10/01 10:30:12;;;;;;;10.00;3.10;;;18.60;99.90;;;;;;5053913;28;20522;-60
2022/10/01 10:32:38;;;;;;;9.57;2.55;;;18.60;99.90;;;;;;5072075;28;20400;-60
2022/10/01 10:35:12;;;;;;;12.68;2.45;;;18.70;99.90;;;;;;5073536;28;20119;-60
2022/10/01 10:37:48;;;;;;;10.23;2.90;;;18.50;99.90;;;;;;5073958;28;20384;-60
2022/10/01 10:40:21;;;;;;;9.88;2.80;;;18.40;99.90;;;;;;5074104;28;20487;-61
2022/10/01 10:42:49;;;;;;;10.63;3.47;;;18.50;99.90;;;;;;5073721;28;20024;-60
2022/10/01 10:45:19;;;;;;;11.93;3.00;;;18.30;99.90;;;;;;5073190;28;20071;-60
2022/10/01 10:47:52;;;;;;;12.60;3.30;;;18.20;99.90;;;;;;5073208;28;20021;-69
2022/10/01 10:50:37;;;;;;;11.77;3.25;;;18.30;99.90;;;;;;5073962;28;20482;-59
2022/10/01 10:53:21;;;;;;;11.93;3.60;;;18.40;99.90;;;;;;5073349;28;20033;-60
2022/10/01 10:56:21;;;;;;;10.55;3.22;;;18.50;99.90;;;;;;5073567;28;20095;-65
2022/10/01 10:58:47;;;;;;;16.00;3.88;;;18.60;99.90;;;;;;5061264;28;20052;-64
2022/10/01 11:01:36;;;;;;;15.00;3.60;;;18.50;99.90;;;;;;5073829;28;20029;-66
2022/10/01 11:04:02;;;;;;;14.32;3.83;;;18.50;99.90;;;;;;5072159;28;20044;-65
2022/10/01 11:06:29;;;;;;;17.85;4.88;;;18.70;99.90;;;;;;5072841;28;20086;-65
2022/10/01 11:09:00;;;;;;;18.27;3.72;;;19.00;99.90;;;;;;5073276;28;20021;-64
2022/10/01 11:11:57;;;;;;;18.55;3.60;;;19.00;99.90;;;;;;5073241;28;20032;-63
2022/10/01 11:14:28;;;;;;;14.38;4.18;;;19.40;99.90;;;;;;5073761;28;20008;-62
2022/10/01 11:17:18;;;;;;;14.50;3.40;;;19.80;99.90;;;;;;5072694;28;20075;-63
2022/10/01 11:20:14;;;;;;;11.20;3.20;;;20.10;99.90;;;;;;5073369;28;20021;-63
2022/10/01 11:23:01;;;;;;;11.02;3.13;;;20.00;99.90;;;;;;5072136;28;20108;-64
2022/10/01 11:25:27;;;;;;;13.95;3.63;;;19.90;99.90;;;;;;5072182;28;20020;-64
2022/10/01 11:28:05;;;;;;;16.35;3.35;;;19.80;99.90;;;;;;5073399;28;20024;-62
2022/10/01 11:30:54;;;;;;;15.52;3.50;;;19.50;99.90;;;;;;5073104;28;20081;-63
2022/10/01 11:33:47;;;;;;;13.25;3.22;;;19.50;99.90;;;;;;5073142;28;20052;-63
2022/10/01 11:36:13;;;;;;;11.75;3.83;;;19.70;99.90;;;;;;5072562;28;20084;-64
2022/10/01 11:39:04;;;;;;;14.10;2.80;;;19.80;99.90;;;;;;5072715;28;20036;-63
2022/10/01 11:41:56;;;;;;;12.20;2.88;;;19.70;99.90;;;;;;5065146;28;20032;-63
2022/10/01 11:44:48;;;;;;;12.80;2.75;;;19.50;99.90;;;;;;5072665;28;20070;-63
2022/10/01 11:47:24;;;;;;;10.45;2.92;;;19.50;99.90;;;;;;5072957;28;20506;-63
2022/10/01 11:50:01;;;;;;;13.93;3.03;;;19.50;99.90;;;;;;5072772;28;20028;-63
2022/10/01 11:52:47;;;;;;;10.93;2.92;;;19.70;99.90;;;;;;5073091;28;20367;-63
2022/10/01 11:58:53;;;;;;;;;;;20.60;99.90;;;;;;5073197;28;20158;-62
2022/10/01 12:01:34;;;;;;;11.18;2.42;;;20.30;99.90;;;;;;5009614;28;19905;-63
2022/10/01 12:04:27;;;;;;;10.93;3.20;;;20.40;99.90;;;;;;5009993;28;20116;-59
2022/10/01 12:06:56;;;;;;;12.80;3.15;;;20.70;99.90;;;;;;5010404;28;20053;-63
2022/10/01 12:09:33;;;;;;;9.75;2.67;;;20.40;99.90;;;;;;5009624;28;20034;-62
2022/10/01 12:12:10;;;;;;;11.93;2.45;;;20.30;99.90;;;;;;5009463;28;20034;-62
2022/10/01 12:15:14;;;;;;;9.23;2.88;;;20.50;99.90;;;;;;5010590;28;20029;-62
2022/10/01 12:18:05;;;;;;;9.05;2.60;;;20.50;99.90;;;;;;5009860;28;20052;-62
2022/10/01 12:20:42;;;;;;;13.02;2.78;;;20.30;99.90;;;;;;5010365;28;20057;-65
2022/10/01 12:23:16;;;;;;;12.20;3.10;;;20.20;99.90;;;;;;5010477;28;20040;-62
2022/10/01 12:26:20;;;;;;;7.75;2.53;;;20.40;99.90;;;;;;5010302;28;20120;-62
2022/10/01 12:28:53;;;;;;;10.15;3.00;;;20.30;99.90;;;;;;5009865;28;20026;-63
2022/10/01 12:31:42;;;;;;;7.68;2.17;;;20.20;99.90;;;;;;5010132;28;20045;-63
2022/10/01 12:34:32;;;;;;;11.07;3.38;;;20.20;99.90;;;;;;5008809;28;20050;-62
2022/10/01 12:37:13;;;;;;;10.90;2.78;;;20.20;99.90;;;;;;5021467;28;20033;-62
2022/10/01 12:39:56;;;;;;;13.48;2.88;;;20.50;99.90;;;;;;5052206;28;20037;-63
2022/10/01 12:42:41;;;;;;;12.63;2.83;;;20.80;99.90;;;;;;5052015;28;20106;-63
2022/10/01 12:45:19;;;;;;;9.25;2.45;;;20.60;99.90;;;;;;5060920;28;20278;-62
2022/10/01 12:48:15;;;;;;;9.40;2.10;;;21.10;99.90;;;;;;5072029;28;20028;-62
2022/10/01 12:51:05;;;;;;;12.07;3.00;;;21.90;99.90;;;;;;5071601;28;20040;-65
2022/10/01 12:53:35;;;;;;;12.73;3.35;;;21.20;99.90;;;;;;5071453;28;20035;-63
2022/10/01 12:56:22;;;;;;;10.32;2.53;;;21.00;99.90;;;;;;5071610;28;20032;-63
2022/10/01 12:58:51;;;;;;;10.30;2.70;;;20.90;99.90;;;;;;5071261;28;20034;-63
2022/10/01 13:01:57;;;;;;;8.40;2.42;;;20.90;99.90;;;;;;5071658;28;20039;-62
2022/10/01 13:04:31;;;;;;;13.57;2.70;;;21.00;99.90;;;;;;5071564;28;20031;-63
2022/10/01 13:07:17;;;;;;;7.70;2.10;;;21.20;99.90;;;;;;5071331;28;20031;-64
2022/10/01 13:09:58;;;;;;;10.93;2.33;;;21.00;99.90;;;;;;5071839;28;20391;-64